Terminal Aerodrome Forecast
Issued by NWS

Home | Current Version | Previous Version | Text Only | Print | Product List | Glossary On
Versions: 1 2 3 4 5 6 7 8 9 10 11 12 13 14 15 16 17 18 19 20 21 22
000
FTUS43 KABR 300602 AAA
TAFATY
TAF AMD
KATY 300602Z 3006/3106 09008KT P6SM OVC010
      TEMPO 3006/3009 BKN008
     FM301300 08008KT P6SM OVC008
     FM301600 08009KT P6SM BKN010
     FM301900 08009KT P6SM BKN020
     FM302200 08009KT P6SM BKN035
     FM310300 07005KT P6SM BKN035=

USA.gov is the U.S. government's official web portal to all federal, state and local government web resources and services.